Du Bois, PA

5:57 PM EDT on August 23, 2017 (GMT -0400)
Du Bois-Jefferson County | | Change Station

Elev 1814 ft 41.18 °N, 78.90 °W | Updated 4 minutes ago

Mostly Cloudy
Mostly Cloudy
70 °F
Feels Like 70 °F
N
8
Wind Variable Wind from WNW

Today
High -- | Low -- °F
--% Chance of Precip.
Yesterday
High -- | Low -- °F
Precip. -- in
Pressure 29.91 in
Visibility 10.0 miles
Clouds Few 4500 ft
Scattered Clouds 6000 ft
Mostly Cloudy 8000 ft
Dew Point 52 °F
Humidity 53%
Rainfall 0.00 in
Snow Depth Not available.
6:33 AM 8:02 PM
Waxing Crescent, 6% visible
METAR KDUJ 232153Z AUTO 30007KT 10SM FEW045 SCT060 BKN080 21/11 A2994 RMK AO2 SLP129 T02110111
Pressure 29.91 in
Visibility 10.0 miles
Clouds Few 4500 ft
Scattered Clouds 6000 ft
Mostly Cloudy 8000 ft
Dew Point 52 °F
Humidity 53%
Rainfall 0.00 in
Snow Depth Not available.
6:33 AM 8:02 PM
Waxing Crescent, 6% visible
METAR KDUJ 232153Z AUTO 30007KT 10SM FEW045 SCT060 BKN080 21/11 A2994 RMK AO2 SLP129 T02110111

Get Severe Weather Alerts

Thanks for signing up!

Be on the lookout for a verification email in your inbox.

You'll start receiving the daily forecast at 6 AM.

×

10-Day Weather Forecast

Almanac

Astronomy

Aug. 23, 2017 Rise Set
Actual Time
Civil Twilight
Nautical Twilight
Astronomical Twilight
Moon
Length of Visible Light
Length of Day
Tomorrow will be .
, % of the Moon is Illuminated

Today's Extremes

State Highs State Lows

Community

WunderPhotos

Category 6

Welcome to Category 6. This is the collective home for Weather Underground's featured writeups by Dr. Jeff Masters (right), Bob Henson (left), Chris Burt, and other regular contributors.

Nearby

Air Quality

  Air Quality AQ Index Pollutant
Not available.

Snow Depth

Station Depth Elevation

Earthquake Activity

City Distance Mag. Time & Date
Minimum magnitude displayed is 2.5.

Coastal Water Temperatures

Place Temperature

Stations

Nearby Weather Stations

Station Location Temp. Windchill Dew Point Humidity Wind Precip. Elev Updated Type
                   

Watches & Warnings

There are currently no watches in effect.